Heywood, United Kingdom
Current Conditions -  °F | °C
As of 8:20 AM on Friday 28 Nov 2014 (Local Time) from EGCC Reporting Station
Broken Clouds Broken Clouds  
Wind Chill: 46°   Ceiling: 1600
Heat Index: 48°   Visibility: 4mi
Dew Point: 48°   Wind: 6mph
Humidity: 100%   Direction: 80°E
Pressure: 29.65"   Gusts: NA
Location:  53.59°N, 2.22°W
Report Text: EGCC 280820Z 08005KT 6000 SCT012 BKN016 09/09 Q1004
Loading
Personal Weather Stations






























Interactive Weather Map New forecast layout! Learn more

10-Day Weather Forecast

Advertisements
Track Severe Weather on mobile